ěÝzenÝ letovÚho provozu ╚eskÚ republiky
Letiste: LKCV Aktualizace: 01.03.2021 18:00:25  UTC
 METAR LKCV 01.03. 18:00 ...
METAR LKCV 011800Z 28003KT 5000 BR NSC 02/00 Q1035 NOSIG RMK WHT WHT=
 TAF LKCV 01.03. 17:00 ...
TAF LKCV 011700Z 0118/0218 VRB02KT 6000 BKN012      TEMPO 0121/0209 3000 BR BKN006      PROB30 TEMPO 0200/0208 0800 FZFG OVC002      BECMG 0209/0213 9999 SCT016=